sensor_id;sensor_type;location;lat;lon;timestamp;pressure;altitude;pressure_sealevel;temperature;humidity
72636;BME280;60679;48.888;15.544;2023-07-28T00:02:06;95539.91;;;16.73;54.74
72636;BME280;60679;48.888;15.544;2023-07-28T00:04:34;95537.75;;;16.70;54.59
72636;BME280;60679;48.888;15.544;2023-07-28T00:06:59;95537.19;;;16.68;54.63
72636;BME280;60679;48.888;15.544;2023-07-28T00:09:25;95532.59;;;16.64;54.60
72636;BME280;60679;48.888;15.544;2023-07-28T00:11:52;95528.78;;;16.60;54.81
72636;BME280;60679;48.888;15.544;2023-07-28T00:14:20;95538.31;;;16.57;54.78
72636;BME280;60679;48.888;15.544;2023-07-28T00:16:45;95533.44;;;16.54;54.89
72636;BME280;60679;48.888;15.544;2023-07-28T00:19:11;95522.78;;;16.53;55.04
72636;BME280;60679;48.888;15.544;2023-07-28T00:21:37;95529.09;;;16.53;55.32
72636;BME280;60679;48.888;15.544;2023-07-28T00:24:03;95526.06;;;16.55;55.32
72636;BME280;60679;48.888;15.544;2023-07-28T00:26:29;95524.16;;;16.55;55.17
72636;BME280;60679;48.888;15.544;2023-07-28T00:28:54;95528.25;;;16.58;55.45
72636;BME280;60679;48.888;15.544;2023-07-28T00:31:19;95525.25;;;16.59;55.38
72636;BME280;60679;48.888;15.544;2023-07-28T00:33:45;95526.34;;;16.58;55.48
72636;BME280;60679;48.888;15.544;2023-07-28T00:36:11;95524.44;;;16.59;55.56
72636;BME280;60679;48.888;15.544;2023-07-28T00:38:36;95517.34;;;16.58;55.58
72636;BME280;60679;48.888;15.544;2023-07-28T00:41:01;95515.44;;;16.58;55.57
72636;BME280;60679;48.888;15.544;2023-07-28T00:43:27;95513.78;;;16.57;55.66
72636;BME280;60679;48.888;15.544;2023-07-28T00:45:53;95514.09;;;16.56;55.87
72636;BME280;60679;48.888;15.544;2023-07-28T00:48:21;95514.34;;;16.54;55.83
72636;BME280;60679;48.888;15.544;2023-07-28T00:50:48;95520.63;;;16.55;55.81
72636;BME280;60679;48.888;15.544;2023-07-28T00:53:15;95522.25;;;16.56;56.10
72636;BME280;60679;48.888;15.544;2023-07-28T00:55:41;95514.34;;;16.54;56.16
72636;BME280;60679;48.888;15.544;2023-07-28T00:58:08;95511.63;;;16.54;56.33
72636;BME280;60679;48.888;15.544;2023-07-28T01:00:35;95507.53;;;16.52;56.11
72636;BME280;60679;48.888;15.544;2023-07-28T01:03:02;95509.72;;;16.50;56.32
72636;BME280;60679;48.888;15.544;2023-07-28T01:05:37;95502.09;;;16.47;56.64
72636;BME280;60679;48.888;15.544;2023-07-28T01:08:38;95501.81;;;16.48;56.33
72636;BME280;60679;48.888;15.544;2023-07-28T01:11:07;95490.09;;;16.48;56.48
72636;BME280;60679;48.888;15.544;2023-07-28T01:13:32;95492.28;;;16.46;56.62
72636;BME280;60679;48.888;15.544;2023-07-28T01:15:59;95490.66;;;16.45;56.87
72636;BME280;60679;48.888;15.544;2023-07-28T01:18:26;95489.84;;;16.44;57.01
72636;BME280;60679;48.888;15.544;2023-07-28T01:20:55;95488.19;;;16.43;56.69
72636;BME280;60679;48.888;15.544;2023-07-28T01:23:52;95482.78;;;16.38;56.98
72636;BME280;60679;48.888;15.544;2023-07-28T01:26:31;95475.97;;;16.36;57.12
72636;BME280;60679;48.888;15.544;2023-07-28T01:28:58;95480.06;;;16.38;57.19
72636;BME280;60679;48.888;15.544;2023-07-28T01:31:25;95478.16;;;16.39;57.42
72636;BME280;60679;48.888;15.544;2023-07-28T01:33:50;95473.53;;;16.39;57.32
72636;BME280;60679;48.888;15.544;2023-07-28T01:36:16;95472.44;;;16.35;57.18
72636;BME280;60679;48.888;15.544;2023-07-28T01:38:41;95478.19;;;16.34;57.32
72636;BME280;60679;48.888;15.544;2023-07-28T01:41:06;95474.59;;;16.38;57.50
72636;BME280;60679;48.888;15.544;2023-07-28T01:43:32;95481.41;;;16.41;57.41
72636;BME280;60679;48.888;15.544;2023-07-28T01:45:57;95475.13;;;16.40;57.38
72636;BME280;60679;48.888;15.544;2023-07-28T01:48:23;95472.66;;;16.44;57.67
72636;BME280;60679;48.888;15.544;2023-07-28T01:50:54;95470.47;;;16.46;57.74
72636;BME280;60679;48.888;15.544;2023-07-28T01:53:20;95477.28;;;16.48;57.48
72636;BME280;60679;48.888;15.544;2023-07-28T01:55:46;95471.81;;;16.48;57.58
72636;BME280;60679;48.888;15.544;2023-07-28T01:58:13;95472.63;;;16.49;57.83
72636;BME280;60679;48.888;15.544;2023-07-28T02:00:39;95466.09;;;16.50;57.51
72636;BME280;60679;48.888;15.544;2023-07-28T02:03:04;95465.03;;;16.51;57.84
72636;BME280;60679;48.888;15.544;2023-07-28T02:05:30;95456.03;;;16.50;57.63
72636;BME280;60679;48.888;15.544;2023-07-28T02:07:56;95453.56;;;16.49;57.78
72636;BME280;60679;48.888;15.544;2023-07-28T02:10:23;95451.94;;;16.48;57.93
72636;BME280;60679;48.888;15.544;2023-07-28T02:12:49;95439.41;;;16.47;58.14
72636;BME280;60679;48.888;15.544;2023-07-28T02:15:15;95429.59;;;16.46;57.99
72636;BME280;60679;48.888;15.544;2023-07-28T02:17:41;95428.50;;;16.47;58.04
72636;BME280;60679;48.888;15.544;2023-07-28T02:20:07;95429.59;;;16.46;58.04
72636;BME280;60679;48.888;15.544;2023-07-28T02:22:36;95436.97;;;16.45;58.13
72636;BME280;60679;48.888;15.544;2023-07-28T02:25:01;95440.78;;;16.44;58.16
72636;BME280;60679;48.888;15.544;2023-07-28T02:27:27;95445.44;;;16.39;58.16
72636;BME280;60679;48.888;15.544;2023-07-28T02:29:53;95445.72;;;16.37;58.48
72636;BME280;60679;48.888;15.544;2023-07-28T02:32:18;95456.38;;;16.34;58.61
72636;BME280;60679;48.888;15.544;2023-07-28T02:35:17;95463.75;;;16.28;58.67
72636;BME280;60679;48.888;15.544;2023-07-28T02:37:51;95462.69;;;16.24;58.58
72636;BME280;60679;48.888;15.544;2023-07-28T02:40:20;95459.97;;;16.19;58.59
72636;BME280;60679;48.888;15.544;2023-07-28T02:42:45;95458.06;;;16.20;58.88
72636;BME280;60679;48.888;15.544;2023-07-28T02:45:11;95453.69;;;16.24;58.84
72636;BME280;60679;48.888;15.544;2023-07-28T02:47:37;95447.97;;;16.25;58.80
72636;BME280;60679;48.888;15.544;2023-07-28T02:50:03;95455.84;;;16.27;58.87
72636;BME280;60679;48.888;15.544;2023-07-28T02:52:31;95448.50;;;16.27;58.64
72636;BME280;60679;48.888;15.544;2023-07-28T02:54:58;95451.53;;;16.26;59.02
72636;BME280;60679;48.888;15.544;2023-07-28T02:57:23;95458.88;;;16.25;59.05
72636;BME280;60679;48.888;15.544;2023-07-28T02:59:49;95459.13;;;16.24;58.83
72636;BME280;60679;48.888;15.544;2023-07-28T03:02:14;95466.78;;;16.22;59.11
72636;BME280;60679;48.888;15.544;2023-07-28T03:04:40;95458.34;;;16.18;59.13
72636;BME280;60679;48.888;15.544;2023-07-28T03:07:05;95465.69;;;16.17;59.07
72636;BME280;60679;48.888;15.544;2023-07-28T03:09:31;95463.22;;;16.21;58.94
72636;BME280;60679;48.888;15.544;2023-07-28T03:11:56;95458.06;;;16.20;59.34
72636;BME280;60679;48.888;15.544;2023-07-28T03:14:22;95463.78;;;16.18;59.40
72636;BME280;60679;48.888;15.544;2023-07-28T03:16:48;95457.81;;;16.16;59.08
72636;BME280;60679;48.888;15.544;2023-07-28T03:19:14;95457.53;;;16.17;59.25
72636;BME280;60679;48.888;15.544;2023-07-28T03:21:42;95451.81;;;16.19;59.29
72636;BME280;60679;48.888;15.544;2023-07-28T03:24:07;95452.34;;;16.21;59.25
72636;BME280;60679;48.888;15.544;2023-07-28T03:26:33;95451.78;;;16.24;59.32
72636;BME280;60679;48.888;15.544;2023-07-28T03:28:59;95452.06;;;16.23;59.33
72636;BME280;60679;48.888;15.544;2023-07-28T03:31:24;95446.88;;;16.21;59.33
72636;BME280;60679;48.888;15.544;2023-07-28T03:33:49;95451.25;;;16.22;59.19
72636;BME280;60679;48.888;15.544;2023-07-28T03:36:15;95457.53;;;16.23;59.37
72636;BME280;60679;48.888;15.544;2023-07-28T03:38:40;95456.16;;;16.25;59.34
72636;BME280;60679;48.888;15.544;2023-07-28T03:41:06;95451.75;;;16.29;59.41
72636;BME280;60679;48.888;15.544;2023-07-28T03:43:32;95462.66;;;16.29;59.31
72636;BME280;60679;48.888;15.544;2023-07-28T03:45:58;95463.47;;;16.30;59.20
72636;BME280;60679;48.888;15.544;2023-07-28T03:48:23;95466.19;;;16.30;59.26
72636;BME280;60679;48.888;15.544;2023-07-28T03:50:48;95470.81;;;16.29;59.13
72636;BME280;60679;48.888;15.544;2023-07-28T03:53:14;95474.63;;;16.33;59.42
72636;BME280;60679;48.888;15.544;2023-07-28T03:55:39;95470.00;;;16.34;59.39
72636;BME280;60679;48.888;15.544;2023-07-28T03:58:05;95469.19;;;16.33;59.31
72636;BME280;60679;48.888;15.544;2023-07-28T04:00:30;95472.16;;;16.32;59.36
72636;BME280;60679;48.888;15.544;2023-07-28T04:02:56;95471.38;;;16.31;59.43
72636;BME280;60679;48.888;15.544;2023-07-28T04:05:27;95468.63;;;16.36;59.24
72636;BME280;60679;48.888;15.544;2023-07-28T04:07:53;95470.50;;;16.41;59.41
72636;BME280;60679;48.888;15.544;2023-07-28T04:10:18;95469.69;;;16.45;59.27
72636;BME280;60679;48.888;15.544;2023-07-28T04:12:44;95470.47;;;16.51;59.35
72636;BME280;60679;48.888;15.544;2023-07-28T04:15:13;95473.47;;;16.59;59.19
72636;BME280;60679;48.888;15.544;2023-07-28T04:17:38;95476.41;;;16.63;59.22
72636;BME280;60679;48.888;15.544;2023-07-28T04:20:05;95479.94;;;16.68;59.05
72636;BME280;60679;48.888;15.544;2023-07-28T04:22:30;95478.81;;;16.74;59.27
72636;BME280;60679;48.888;15.544;2023-07-28T04:24:56;95479.31;;;16.82;58.86
72636;BME280;60679;48.888;15.544;2023-07-28T04:27:21;95483.66;;;16.88;58.66
72636;BME280;60679;48.888;15.544;2023-07-28T04:29:47;95487.16;;;16.93;58.86
72636;BME280;60679;48.888;15.544;2023-07-28T04:32:12;95485.44;;;17.02;58.60
72636;BME280;60679;48.888;15.544;2023-07-28T04:34:38;95481.31;;;17.10;58.38
72636;BME280;60679;48.888;15.544;2023-07-28T04:37:06;95484.81;;;17.15;58.72
72636;BME280;60679;48.888;15.544;2023-07-28T04:39:32;95480.66;;;17.23;58.47
72636;BME280;60679;48.888;15.544;2023-07-28T04:41:57;95490.72;;;17.33;58.65
72636;BME280;60679;48.888;15.544;2023-07-28T04:44:23;95484.63;;;17.41;58.10
72636;BME280;60679;48.888;15.544;2023-07-28T04:46:48;95476.34;;;17.51;58.46
72636;BME280;60679;48.888;15.544;2023-07-28T04:49:14;95477.69;;;17.53;58.05
72636;BME280;60679;48.888;15.544;2023-07-28T04:51:39;95479.06;;;17.56;58.17
72636;BME280;60679;48.888;15.544;2023-07-28T04:54:07;95477.06;;;17.66;58.05
72636;BME280;60679;48.888;15.544;2023-07-28T04:56:33;95473.91;;;17.83;57.77
72636;BME280;60679;48.888;15.544;2023-07-28T04:58:58;95476.50;;;17.93;57.66
72636;BME280;60679;48.888;15.544;2023-07-28T05:01:24;95483.03;;;17.97;57.85
72636;BME280;60679;48.888;15.544;2023-07-28T05:03:50;95476.94;;;18.05;57.54
72636;BME280;60679;48.888;15.544;2023-07-28T05:06:16;95482.28;;;18.15;57.19
72636;BME280;60679;48.888;15.544;2023-07-28T05:08:41;95479.63;;;18.34;56.91
72636;BME280;60679;48.888;15.544;2023-07-28T05:11:07;95480.81;;;18.46;56.85
72636;BME280;60679;48.888;15.544;2023-07-28T05:13:32;95488.13;;;18.56;56.82
72636;BME280;60679;48.888;15.544;2023-07-28T05:15:58;95491.25;;;18.68;56.50
72636;BME280;60679;48.888;15.544;2023-07-28T05:18:25;95493.53;;;18.80;56.39
72636;BME280;60679;48.888;15.544;2023-07-28T05:20:50;95503.25;;;18.91;56.22
72636;BME280;60679;48.888;15.544;2023-07-28T05:23:16;95504.78;;;18.97;56.03
72636;BME280;60679;48.888;15.544;2023-07-28T05:25:42;95494.91;;;19.01;56.17
72636;BME280;60679;48.888;15.544;2023-07-28T05:28:07;95502.91;;;19.16;55.82
72636;BME280;60679;48.888;15.544;2023-07-28T05:30:32;95508.03;;;19.36;55.83
72636;BME280;60679;48.888;15.544;2023-07-28T05:32:58;95500.66;;;19.55;55.26
72636;BME280;60679;48.888;15.544;2023-07-28T05:35:23;95500.25;;;19.62;55.37
72636;BME280;60679;48.888;15.544;2023-07-28T05:37:49;95499.06;;;19.68;54.95
72636;BME280;60679;48.888;15.544;2023-07-28T05:40:14;95495.22;;;19.69;54.95
72636;BME280;60679;48.888;15.544;2023-07-28T05:42:40;95503.13;;;19.71;54.76
72636;BME280;60679;48.888;15.544;2023-07-28T05:45:06;95508.84;;;19.74;55.00
72636;BME280;60679;48.888;15.544;2023-07-28T05:47:31;95506.19;;;19.69;54.87
72636;BME280;60679;48.888;15.544;2023-07-28T05:49:57;95513.28;;;19.70;54.71
72636;BME280;60679;48.888;15.544;2023-07-28T05:52:22;95520.09;;;19.73;54.95
72636;BME280;60679;48.888;15.544;2023-07-28T05:54:48;95518.22;;;19.87;54.91
72636;BME280;60679;48.888;15.544;2023-07-28T05:57:13;95514.56;;;19.91;54.86
72636;BME280;60679;48.888;15.544;2023-07-28T05:59:39;95515.69;;;20.04;54.57
72636;BME280;60679;48.888;15.544;2023-07-28T06:02:05;95514.44;;;20.15;54.46
72636;BME280;60679;48.888;15.544;2023-07-28T06:04:30;95508.41;;;19.99;54.64
72636;BME280;60679;48.888;15.544;2023-07-28T06:06:56;95498.53;;;19.98;54.53
72636;BME280;60679;48.888;15.544;2023-07-28T06:09:21;95495.31;;;20.10;54.26
72636;BME280;60679;48.888;15.544;2023-07-28T06:11:47;95495.28;;;20.29;53.96
72636;BME280;60679;48.888;15.544;2023-07-28T06:14:13;95497.63;;;20.62;53.40
72636;BME280;60679;48.888;15.544;2023-07-28T06:16:38;95493.38;;;21.19;52.25
72636;BME280;60679;48.888;15.544;2023-07-28T06:19:04;95489.72;;;21.46;51.69
72636;BME280;60679;48.888;15.544;2023-07-28T06:21:30;95476.19;;;21.50;51.77
72636;BME280;60679;48.888;15.544;2023-07-28T06:23:55;95483.25;;;21.42;51.61
72636;BME280;60679;48.888;15.544;2023-07-28T06:26:21;95486.75;;;21.20;52.41
72636;BME280;60679;48.888;15.544;2023-07-28T06:28:46;95480.50;;;20.93;52.97
72636;BME280;60679;48.888;15.544;2023-07-28T06:31:12;95479.41;;;20.53;53.50
72636;BME280;60679;48.888;15.544;2023-07-28T06:33:37;95488.50;;;20.21;53.65
72636;BME280;60679;48.888;15.544;2023-07-28T06:36:04;95489.31;;;20.08;54.28
72636;BME280;60679;48.888;15.544;2023-07-28T06:38:29;95490.97;;;20.23;53.60
72636;BME280;60679;48.888;15.544;2023-07-28T06:40:55;95489.03;;;20.78;52.53
72636;BME280;60679;48.888;15.544;2023-07-28T06:43:20;95495.28;;;21.33;52.00
72636;BME280;60679;48.888;15.544;2023-07-28T06:45:46;95499.22;;;21.62;51.09
72636;BME280;60679;48.888;15.544;2023-07-28T06:48:12;95490.47;;;21.82;51.05
72636;BME280;60679;48.888;15.544;2023-07-28T06:50:38;95504.59;;;22.12;50.67
72636;BME280;60679;48.888;15.544;2023-07-28T06:53:03;95499.81;;;22.26;50.46
72636;BME280;60679;48.888;15.544;2023-07-28T06:55:28;95500.28;;;22.59;49.88
72636;BME280;60679;48.888;15.544;2023-07-28T06:57:54;95498.00;;;23.00;49.59
72636;BME280;60679;48.888;15.544;2023-07-28T07:00:23;95486.13;;;22.82;49.60
72636;BME280;60679;48.888;15.544;2023-07-28T07:02:48;95492.78;;;22.81;49.74
72636;BME280;60679;48.888;15.544;2023-07-28T07:05:14;95488.97;;;22.60;50.33
72636;BME280;60679;48.888;15.544;2023-07-28T07:07:40;95495.19;;;22.35;50.07
72636;BME280;60679;48.888;15.544;2023-07-28T07:10:07;95491.06;;;22.24;50.71
72636;BME280;60679;48.888;15.544;2023-07-28T07:12:32;95500.53;;;22.09;50.84
72636;BME280;60679;48.888;15.544;2023-07-28T07:14:58;95503.16;;;21.70;51.44
72636;BME280;60679;48.888;15.544;2023-07-28T07:17:23;95497.75;;;21.43;52.01
72636;BME280;60679;48.888;15.544;2023-07-28T07:19:52;95497.75;;;21.43;51.95
72636;BME280;60679;48.888;15.544;2023-07-28T07:22:18;95495.00;;;21.56;52.03
72636;BME280;60679;48.888;15.544;2023-07-28T07:24:43;95505.34;;;21.81;51.36
72636;BME280;60679;48.888;15.544;2023-07-28T07:27:09;95491.03;;;21.93;51.40
72636;BME280;60679;48.888;15.544;2023-07-28T07:29:38;95495.97;;;22.05;50.99
72636;BME280;60679;48.888;15.544;2023-07-28T07:32:05;95491.66;;;22.43;50.38
72636;BME280;60679;48.888;15.544;2023-07-28T07:34:31;95489.31;;;22.28;51.11
72636;BME280;60679;48.888;15.544;2023-07-28T07:37:00;95491.59;;;22.34;50.62
72636;BME280;60679;48.888;15.544;2023-07-28T07:39:26;95494.47;;;22.60;50.41
72636;BME280;60679;48.888;15.544;2023-07-28T07:41:54;95493.38;;;22.70;50.55
72636;BME280;60679;48.888;15.544;2023-07-28T07:44:20;95485.97;;;22.87;50.17
72636;BME280;60679;48.888;15.544;2023-07-28T07:46:45;95497.69;;;23.02;49.90
72636;BME280;60679;48.888;15.544;2023-07-28T07:49:11;95490.41;;;23.31;49.14
72636;BME280;60679;48.888;15.544;2023-07-28T07:51:36;95481.22;;;23.70;49.17
72636;BME280;60679;48.888;15.544;2023-07-28T07:54:02;95484.63;;;23.59;49.03
72636;BME280;60679;48.888;15.544;2023-07-28T07:56:27;95492.22;;;23.87;48.89
72636;BME280;60679;48.888;15.544;2023-07-28T07:58:53;95495.19;;;24.46;48.11
72636;BME280;60679;48.888;15.544;2023-07-28T08:01:19;95491.78;;;24.78;47.37
72636;BME280;60679;48.888;15.544;2023-07-28T08:03:44;95502.09;;;24.69;47.50
72636;BME280;60679;48.888;15.544;2023-07-28T08:06:10;95492.69;;;24.99;47.39
72636;BME280;60679;48.888;15.544;2023-07-28T08:08:37;95489.97;;;25.20;46.43
72636;BME280;60679;48.888;15.544;2023-07-28T08:11:02;95506.56;;;25.20;46.49
72636;BME280;60679;48.888;15.544;2023-07-28T08:13:28;95499.59;;;24.85;47.38
72636;BME280;60679;48.888;15.544;2023-07-28T08:15:54;95502.50;;;24.88;47.20
72636;BME280;60679;48.888;15.544;2023-07-28T08:18:19;95508.50;;;25.19;46.76
72636;BME280;60679;48.888;15.544;2023-07-28T08:20:45;95507.78;;;25.31;46.68
72636;BME280;60679;48.888;15.544;2023-07-28T08:23:11;95504.84;;;25.57;46.43
72636;BME280;60679;48.888;15.544;2023-07-28T08:25:36;95508.84;;;25.68;46.33
72636;BME280;60679;48.888;15.544;2023-07-28T08:28:02;95511.38;;;25.73;46.07
72636;BME280;60679;48.888;15.544;2023-07-28T08:30:27;95511.78;;;25.83;46.04
72636;BME280;60679;48.888;15.544;2023-07-28T08:32:53;95508.50;;;26.23;45.47
72636;BME280;60679;48.888;15.544;2023-07-28T08:35:18;95503.81;;;26.92;44.31
72636;BME280;60679;48.888;15.544;2023-07-28T08:37:44;95510.69;;;27.99;42.99
72636;BME280;60679;48.888;15.544;2023-07-28T08:40:10;95511.38;;;28.08;42.71
72636;BME280;60679;48.888;15.544;2023-07-28T08:42:38;95511.09;;;28.41;42.22
72636;BME280;60679;48.888;15.544;2023-07-28T08:45:04;95514.63;;;28.53;42.16
72636;BME280;60679;48.888;15.544;2023-07-28T08:47:31;95512.94;;;28.21;42.38
72636;BME280;60679;48.888;15.544;2023-07-28T08:49:57;95531.16;;;27.94;42.29
72636;BME280;60679;48.888;15.544;2023-07-28T08:52:22;95525.53;;;27.91;42.60
72636;BME280;60679;48.888;15.544;2023-07-28T08:54:49;95525.91;;;27.77;42.70
72636;BME280;60679;48.888;15.544;2023-07-28T08:57:18;95515.66;;;27.54;42.56
72636;BME280;60679;48.888;15.544;2023-07-28T08:59:44;95512.50;;;29.25;40.18
72636;BME280;60679;48.888;15.544;2023-07-28T09:02:16;95510.13;;;32.27;35.88
72636;BME280;60679;48.888;15.544;2023-07-28T09:04:45;95517.41;;;33.56;34.50
72636;BME280;60679;48.888;15.544;2023-07-28T09:07:14;95520.75;;;33.25;35.08
72636;BME280;60679;48.888;15.544;2023-07-28T09:09:48;95509.34;;;34.06;34.37
72636;BME280;60679;48.888;15.544;2023-07-28T09:12:13;95517.34;;;35.25;32.88
72636;BME280;60679;48.888;15.544;2023-07-28T09:14:39;95507.22;;;36.16;31.36
72636;BME280;60679;48.888;15.544;2023-07-28T09:17:08;95514.97;;;35.31;32.52
72636;BME280;60679;48.888;15.544;2023-07-28T09:19:34;95526.41;;;32.51;36.41
72636;BME280;60679;48.888;15.544;2023-07-28T09:22:01;95510.56;;;31.21;38.42
72636;BME280;60679;48.888;15.544;2023-07-28T09:24:33;95520.50;;;31.44;37.29
72636;BME280;60679;48.888;15.544;2023-07-28T09:27:00;95518.81;;;30.49;38.94
72636;BME280;60679;48.888;15.544;2023-07-28T09:29:26;95515.28;;;29.09;40.55
72636;BME280;60679;48.888;15.544;2023-07-28T09:32:04;95513.81;;;27.21;43.13
72636;BME280;60679;48.888;15.544;2023-07-28T09:34:30;95511.84;;;26.16;44.00
72636;BME280;60679;48.888;15.544;2023-07-28T09:36:58;95517.31;;;25.63;44.50
72636;BME280;60679;48.888;15.544;2023-07-28T09:39:25;95528.47;;;25.25;44.54
72636;BME280;60679;48.888;15.544;2023-07-28T09:41:50;95524.00;;;25.83;43.38
72636;BME280;60679;48.888;15.544;2023-07-28T09:44:16;95521.94;;;27.14;41.32
72636;BME280;60679;48.888;15.544;2023-07-28T09:46:53;95513.94;;;31.07;35.76
72636;BME280;60679;48.888;15.544;2023-07-28T09:49:34;95513.50;;;30.63;37.28
72636;BME280;60679;48.888;15.544;2023-07-28T09:52:05;95534.06;;;28.53;39.88
72636;BME280;60679;48.888;15.544;2023-07-28T09:54:43;95519.16;;;27.02;42.12
72636;BME280;60679;48.888;15.544;2023-07-28T09:57:14;95539.31;;;26.21;43.14
72636;BME280;60679;48.888;15.544;2023-07-28T09:59:42;95547.81;;;25.25;44.02
72636;BME280;60679;48.888;15.544;2023-07-28T10:02:10;95551.75;;;24.78;44.21
72636;BME280;60679;48.888;15.544;2023-07-28T10:04:36;95543.88;;;25.05;43.52
72636;BME280;60679;48.888;15.544;2023-07-28T10:07:04;95539.13;;;25.64;43.06
72636;BME280;60679;48.888;15.544;2023-07-28T10:09:30;95539.22;;;26.30;42.45
72636;BME280;60679;48.888;15.544;2023-07-28T10:11:59;95536.72;;;26.94;41.80
72636;BME280;60679;48.888;15.544;2023-07-28T10:14:35;95534.53;;;27.48;41.60
72636;BME280;60679;48.888;15.544;2023-07-28T10:17:03;95524.69;;;27.63;41.63
72636;BME280;60679;48.888;15.544;2023-07-28T10:19:35;95531.38;;;27.62;41.53
72636;BME280;60679;48.888;15.544;2023-07-28T10:22:09;95527.44;;;28.02;41.50
72636;BME280;60679;48.888;15.544;2023-07-28T10:24:58;95520.84;;;28.35;40.99
72636;BME280;60679;48.888;15.544;2023-07-28T10:27:39;95515.94;;;28.87;40.31
72636;BME280;60679;48.888;15.544;2023-07-28T10:30:13;95516.47;;;30.74;37.54
72636;BME280;60679;48.888;15.544;2023-07-28T10:32:43;95516.09;;;30.33;38.29
72636;BME280;60679;48.888;15.544;2023-07-28T10:37:38;95510.41;;;31.10;37.18
72636;BME280;60679;48.888;15.544;2023-07-28T10:40:32;95513.56;;;29.71;39.34
72636;BME280;60679;48.888;15.544;2023-07-28T10:43:05;95522.03;;;28.34;41.17
72636;BME280;60679;48.888;15.544;2023-07-28T10:45:33;95519.69;;;27.68;41.99
72636;BME280;60679;48.888;15.544;2023-07-28T10:47:59;95520.56;;;29.81;38.63
72636;BME280;60679;48.888;15.544;2023-07-28T10:50:30;95523.63;;;28.07;41.44
72636;BME280;60679;48.888;15.544;2023-07-28T10:52:57;95517.75;;;27.44;41.46
72636;BME280;60679;48.888;15.544;2023-07-28T10:55:27;95513.84;;;29.00;39.11
72636;BME280;60679;48.888;15.544;2023-07-28T10:57:54;95517.59;;;29.07;39.45
72636;BME280;60679;48.888;15.544;2023-07-28T11:00:21;95523.63;;;28.07;40.96
72636;BME280;60679;48.888;15.544;2023-07-28T11:02:52;95527.81;;;27.89;41.03
72636;BME280;60679;48.888;15.544;2023-07-28T11:05:23;95520.88;;;28.23;40.33
72636;BME280;60679;48.888;15.544;2023-07-28T11:07:49;95519.34;;;28.10;40.32
72636;BME280;60679;48.888;15.544;2023-07-28T11:10:15;95518.22;;;29.16;38.60
72636;BME280;60679;48.888;15.544;2023-07-28T11:12:42;95524.59;;;29.17;39.29
72636;BME280;60679;48.888;15.544;2023-07-28T11:15:09;95520.72;;;28.59;39.80
72636;BME280;60679;48.888;15.544;2023-07-28T11:17:44;95525.13;;;27.52;41.19
72636;BME280;60679;48.888;15.544;2023-07-28T11:20:16;95525.50;;;26.78;41.62
72636;BME280;60679;48.888;15.544;2023-07-28T11:22:46;95526.28;;;26.34;42.35
72636;BME280;60679;48.888;15.544;2023-07-28T11:25:15;95525.13;;;26.02;42.43
72636;BME280;60679;48.888;15.544;2023-07-28T11:27:40;95515.88;;;25.98;42.66
72636;BME280;60679;48.888;15.544;2023-07-28T11:30:09;95536.06;;;25.78;42.75
72636;BME280;60679;48.888;15.544;2023-07-28T11:32:38;95531.25;;;25.46;43.15
72636;BME280;60679;48.888;15.544;2023-07-28T11:35:09;95537.28;;;25.18;43.11
72636;BME280;60679;48.888;15.544;2023-07-28T11:37:37;95540.53;;;24.91;43.53
72636;BME280;60679;48.888;15.544;2023-07-28T11:40:07;95538.63;;;24.83;43.11
72636;BME280;60679;48.888;15.544;2023-07-28T11:42:34;95536.91;;;25.29;42.40
72636;BME280;60679;48.888;15.544;2023-07-28T11:45:02;95539.00;;;26.35;40.89
72636;BME280;60679;48.888;15.544;2023-07-28T11:47:28;95533.84;;;32.40;32.74
72636;BME280;60679;48.888;15.544;2023-07-28T11:49:54;95521.72;;;40.02;25.22
72636;BME280;60679;48.888;15.544;2023-07-28T11:52:23;95524.03;;;37.17;29.19
72636;BME280;60679;48.888;15.544;2023-07-28T11:54:48;95519.06;;;32.40;34.88
72636;BME280;60679;48.888;15.544;2023-07-28T11:57:14;95523.56;;;30.68;36.44
72636;BME280;60679;48.888;15.544;2023-07-28T11:59:39;95532.75;;;29.76;37.66
72636;BME280;60679;48.888;15.544;2023-07-28T12:02:07;95535.66;;;28.98;37.97
72636;BME280;60679;48.888;15.544;2023-07-28T12:04:36;95538.06;;;28.13;39.08
72636;BME280;60679;48.888;15.544;2023-07-28T12:07:12;95529.41;;;28.02;39.25
72636;BME280;60679;48.888;15.544;2023-07-28T12:12:18;95535.47;;;29.06;37.51
72636;BME280;60679;48.888;15.544;2023-07-28T12:14:45;95540.88;;;28.56;38.14
72636;BME280;60679;48.888;15.544;2023-07-28T12:17:18;95539.13;;;27.68;39.08
72636;BME280;60679;48.888;15.544;2023-07-28T12:20:01;95543.44;;;26.60;40.40
72636;BME280;60679;48.888;15.544;2023-07-28T12:22:29;95545.91;;;26.08;41.01
72636;BME280;60679;48.888;15.544;2023-07-28T12:24:55;95553.59;;;26.03;40.99
72636;BME280;60679;48.888;15.544;2023-07-28T12:27:23;95541.47;;;25.95;40.81
72636;BME280;60679;48.888;15.544;2023-07-28T12:29:52;95546.53;;;25.93;40.83
72636;BME280;60679;48.888;15.544;2023-07-28T12:32:18;95548.16;;;26.15;40.61
72636;BME280;60679;48.888;15.544;2023-07-28T12:34:44;95549.94;;;26.76;39.72
72636;BME280;60679;48.888;15.544;2023-07-28T12:37:10;95553.47;;;26.53;40.10
72636;BME280;60679;48.888;15.544;2023-07-28T12:39:40;95546.03;;;26.32;40.55
72636;BME280;60679;48.888;15.544;2023-07-28T12:42:09;95558.34;;;26.23;40.30
72636;BME280;60679;48.888;15.544;2023-07-28T12:44:36;95550.81;;;26.44;40.12
72636;BME280;60679;48.888;15.544;2023-07-28T12:47:02;95560.28;;;27.24;38.93
72636;BME280;60679;48.888;15.544;2023-07-28T12:49:28;95567.28;;;28.93;36.77
72636;BME280;60679;48.888;15.544;2023-07-28T12:51:55;95569.91;;;28.86;37.09
72636;BME280;60679;48.888;15.544;2023-07-28T12:54:22;95561.72;;;28.93;37.06
72636;BME280;60679;48.888;15.544;2023-07-28T12:56:48;95578.91;;;28.12;37.82